Time;durP1;ratioP1;P1;durP2;ratioP2;P2;SDS_P1;SDS_P2;PMS_P1;PMS_P2;Temp;Humidity;BMP_temperature;BMP_pressure;BME280_temperature;BME280_humidity;BME280_pressure;Samples;Min_cycle;Max_cycle;Signal;HPM_P1;HPM_P2
2023/08/10 00:02:17;;;;;;;6.18;3.15;;;;;;;;;;5078067;28;20410;-59
2023/08/10 00:04:44;;;;;;;9.52;3.40;;;;;;;;;;5084129;28;20409;-59
2023/08/10 00:07:11;;;;;;;7.38;3.33;;;;;;;;;;5081535;28;20418;-59
2023/08/10 00:09:38;;;;;;;9.45;3.47;;;;;;;;;;5088507;28;20489;-58
2023/08/10 00:12:05;;;;;;;7.95;3.60;;;;;;;;;;5082929;28;20898;-59
2023/08/10 00:14:33;;;;;;;7.47;3.10;;;;;;;;;;5082492;28;20469;-58
2023/08/10 00:17:00;;;;;;;7.57;3.30;;;;;;;;;;5081961;28;20409;-58
2023/08/10 00:19:28;;;;;;;7.03;3.17;;;;;;;;;;5083774;28;20410;-60
2023/08/10 00:21:55;;;;;;;7.72;3.28;;;;;;;;;;5081640;28;20427;-59
2023/08/10 00:24:22;;;;;;;7.30;2.90;;;;;;;;;;5082038;28;20427;-59
2023/08/10 00:26:49;;;;;;;7.18;3.20;;;;;;;;;;5082376;28;20472;-59
2023/08/10 00:29:16;;;;;;;8.27;3.43;;;;;;;;;;5081615;28;20914;-59
2023/08/10 00:31:43;;;;;;;6.65;3.03;;;;;;;;;;5078230;28;20403;-59
2023/08/10 00:34:10;;;;;;;6.15;2.97;;;;;;;;;;5082736;28;20469;-58
2023/08/10 00:36:38;;;;;;;8.18;3.25;;;;;;;;;;5081443;28;20894;-59
2023/08/10 00:39:05;;;;;;;6.97;2.97;;;;;;;;;;5083339;28;20469;-59
2023/08/10 00:41:32;;;;;;;6.88;3.45;;;;;;;;;;5084288;28;20414;-59
2023/08/10 00:43:59;;;;;;;8.63;3.45;;;;;;;;;;5083730;28;20413;-58
2023/08/10 00:46:27;;;;;;;6.85;3.60;;;;;;;;;;5080188;28;20407;-58
2023/08/10 00:48:54;;;;;;;6.65;3.15;;;;;;;;;;5083740;28;20422;-59
2023/08/10 00:51:21;;;;;;;7.77;3.10;;;;;;;;;;5080669;28;20436;-59
2023/08/10 00:53:50;;;;;;;7.25;3.53;;;;;;;;;;5083383;28;20455;-58
2023/08/10 00:56:17;;;;;;;7.07;3.63;;;;;;;;;;5080693;28;20426;-58
2023/08/10 00:58:44;;;;;;;6.68;3.58;;;;;;;;;;5083524;28;20410;-59
2023/08/10 01:01:11;;;;;;;7.85;3.40;;;;;;;;;;5074340;28;20479;-58
2023/08/10 01:03:38;;;;;;;7.53;3.60;;;;;;;;;;5082218;28;20426;-58
2023/08/10 01:06:11;;;;;;;8.47;3.73;;;;;;;;;;5081169;28;20441;-59
2023/08/10 01:08:44;;;;;;;8.35;4.10;;;;;;;;;;5085079;28;20455;-59
2023/08/10 01:11:16;;;;;;;8.60;3.30;;;;;;;;;;5079839;28;20483;-58
2023/08/10 01:13:47;;;;;;;8.90;3.92;;;;;;;;;;5078958;28;20399;-59
2023/08/10 01:16:15;;;;;;;11.63;3.72;;;;;;;;;;5079148;28;20460;-59
2023/08/10 01:18:43;;;;;;;7.47;4.00;;;;;;;;;;5079142;28;20514;-59
2023/08/10 01:21:15;;;;;;;6.95;3.90;;;;;;;;;;5083197;28;20861;-59
2023/08/10 01:23:44;;;;;;;7.00;3.72;;;;;;;;;;5080445;28;20501;-59
2023/08/10 01:26:12;;;;;;;7.57;3.80;;;;;;;;;;5082538;28;20503;-59
2023/08/10 01:28:40;;;;;;;7.10;3.42;;;;;;;;;;5078589;28;20755;-59
2023/08/10 01:31:07;;;;;;;7.22;3.50;;;;;;;;;;5077610;28;20968;-59
2023/08/10 01:33:34;;;;;;;7.45;3.63;;;;;;;;;;5079406;28;20511;-59
2023/08/10 01:36:02;;;;;;;7.30;3.60;;;;;;;;;;5083044;28;20459;-58
2023/08/10 01:38:29;;;;;;;7.75;3.38;;;;;;;;;;5085457;28;20482;-59
2023/08/10 01:40:56;;;;;;;6.78;3.22;;;;;;;;;;5085033;28;20413;-59
2023/08/10 01:43:24;;;;;;;5.78;3.60;;;;;;;;;;5080071;28;20459;-59
2023/08/10 01:45:55;;;;;;;7.45;3.30;;;;;;;;;;5082996;28;20922;-60
2023/08/10 01:48:25;;;;;;;6.03;3.17;;;;;;;;;;5076637;28;20475;-59
2023/08/10 01:50:53;;;;;;;6.97;3.25;;;;;;;;;;5083101;28;20776;-60
2023/08/10 01:53:23;;;;;;;5.97;3.20;;;;;;;;;;5077603;28;20416;-59
2023/08/10 01:55:50;;;;;;;5.53;3.20;;;;;;;;;;5081122;28;20481;-59
2023/08/10 01:58:18;;;;;;;7.72;3.58;;;;;;;;;;5075636;28;20402;-59
2023/08/10 02:00:46;;;;;;;6.80;3.08;;;;;;;;;;5080048;28;20471;-59
2023/08/10 02:03:13;;;;;;;6.88;3.55;;;;;;;;;;5079264;28;20410;-59
2023/08/10 02:05:40;;;;;;;6.78;3.72;;;;;;;;;;5081060;28;21003;-59
2023/08/10 02:08:08;;;;;;;6.45;3.47;;;;;;;;;;5083020;28;20422;-59
2023/08/10 02:10:35;;;;;;;8.68;3.58;;;;;;;;;;5082464;28;20423;-59
2023/08/10 02:13:02;;;;;;;8.37;3.30;;;;;;;;;;5077018;28;20447;-59
2023/08/10 02:15:29;;;;;;;7.93;3.50;;;;;;;;;;5080869;28;20461;-59
2023/08/10 02:17:58;;;;;;;7.72;3.65;;;;;;;;;;5080143;28;20406;-59
2023/08/10 02:20:25;;;;;;;7.65;3.38;;;;;;;;;;5079592;28;20472;-58
2023/08/10 02:22:53;;;;;;;9.93;3.55;;;;;;;;;;5080787;28;20423;-59
2023/08/10 02:25:20;;;;;;;5.65;3.00;;;;;;;;;;5079456;28;20890;-60
2023/08/10 02:27:50;;;;;;;7.00;3.63;;;;;;;;;;5077643;28;20921;-57
2023/08/10 02:30:17;;;;;;;6.63;3.58;;;;;;;;;;5080592;28;20826;-58
2023/08/10 02:32:44;;;;;;;5.68;3.15;;;;;;;;;;5076395;28;20441;-60
2023/08/10 02:35:13;;;;;;;8.07;3.30;;;;;;;;;;5083113;28;20542;-59
2023/08/10 02:37:40;;;;;;;8.35;3.58;;;;;;;;;;5078256;28;20477;-60
2023/08/10 02:40:10;;;;;;;6.20;3.20;;;;;;;;;;5083437;28;20490;-59
2023/08/10 02:42:37;;;;;;;5.60;3.40;;;;;;;;;;5080439;28;20552;-60
2023/08/10 02:45:04;;;;;;;8.63;3.65;;;;;;;;;;5081494;28;20429;-60
2023/08/10 02:47:31;;;;;;;7.20;3.30;;;;;;;;;;5078403;28;20449;-60
2023/08/10 02:49:58;;;;;;;6.10;3.20;;;;;;;;;;5080733;28;20431;-60
2023/08/10 02:52:27;;;;;;;8.00;3.50;;;;;;;;;;5079816;28;20415;-60
2023/08/10 02:54:54;;;;;;;7.10;3.15;;;;;;;;;;5079054;28;20446;-57
2023/08/10 02:57:21;;;;;;;9.45;3.28;;;;;;;;;;5079798;28;20822;-60
2023/08/10 02:59:48;;;;;;;6.95;3.35;;;;;;;;;;5079370;28;20475;-59
2023/08/10 03:02:17;;;;;;;8.10;3.55;;;;;;;;;;5080828;28;20421;-59
2023/08/10 03:04:44;;;;;;;7.18;3.38;;;;;;;;;;5078217;28;20414;-59
2023/08/10 03:07:11;;;;;;;7.15;3.20;;;;;;;;;;5081382;28;20441;-60
2023/08/10 03:09:41;;;;;;;5.63;3.20;;;;;;;;;;5081141;28;20426;-59
2023/08/10 03:12:08;;;;;;;7.57;3.30;;;;;;;;;;5075465;28;20904;-59
2023/08/10 03:14:36;;;;;;;7.03;3.17;;;;;;;;;;5077471;28;20525;-60
2023/08/10 03:17:03;;;;;;;9.95;3.55;;;;;;;;;;5080966;28;20405;-59
2023/08/10 03:19:30;;;;;;;8.82;3.40;;;;;;;;;;5077400;28;20405;-60
2023/08/10 03:21:57;;;;;;;8.85;3.80;;;;;;;;;;5081388;28;20487;-60
2023/08/10 03:24:24;;;;;;;7.72;3.20;;;;;;;;;;5078825;28;20422;-58
2023/08/10 03:26:53;;;;;;;6.13;3.22;;;;;;;;;;5081736;28;20474;-59
2023/08/10 03:29:20;;;;;;;6.63;3.63;;;;;;;;;;5081885;28;20429;-60
2023/08/10 03:31:47;;;;;;;8.95;4.25;;;;;;;;;;5082084;28;20480;-59
2023/08/10 03:34:14;;;;;;;7.28;3.80;;;;;;;;;;5082939;28;20405;-59
2023/08/10 03:36:41;;;;;;;8.07;3.67;;;;;;;;;;5087062;28;20419;-60
2023/08/10 03:39:08;;;;;;;8.48;3.72;;;;;;;;;;5086181;28;21070;-59
2023/08/10 03:41:35;;;;;;;9.40;3.80;;;;;;;;;;5083220;28;20456;-59
2023/08/10 03:44:03;;;;;;;8.32;3.03;;;;;;;;;;5082646;28;20558;-59
2023/08/10 03:46:30;;;;;;;7.75;3.40;;;;;;;;;;5085053;28;20415;-59
2023/08/10 03:48:57;;;;;;;9.52;3.35;;;;;;;;;;5082287;28;20423;-59
2023/08/10 03:51:24;;;;;;;9.23;3.60;;;;;;;;;;5082462;28;20890;-59
2023/08/10 03:53:51;;;;;;;5.88;3.35;;;;;;;;;;5082707;28;20469;-59
2023/08/10 03:56:18;;;;;;;5.93;3.55;;;;;;;;;;5082937;28;20415;-59
2023/08/10 03:58:45;;;;;;;10.50;3.55;;;;;;;;;;5085712;28;20408;-59
2023/08/10 04:01:14;;;;;;;7.43;3.50;;;;;;;;;;5083773;28;20472;-60
2023/08/10 04:03:41;;;;;;;7.68;3.40;;;;;;;;;;5082011;28;20461;-59
2023/08/10 04:06:08;;;;;;;7.15;3.45;;;;;;;;;;5084062;28;20467;-58
2023/08/10 04:08:35;;;;;;;9.37;3.83;;;;;;;;;;5081355;28;20847;-59
2023/08/10 04:11:02;;;;;;;7.07;3.50;;;;;;;;;;5076162;28;20795;-60
2023/08/10 04:13:29;;;;;;;10.25;3.80;;;;;;;;;;5076174;28;20479;-59
2023/08/10 04:15:56;;;;;;;7.90;4.15;;;;;;;;;;5077941;28;20919;-59
2023/08/10 04:18:25;;;;;;;11.48;4.78;;;;;;;;;;5080730;28;20516;-60
2023/08/10 04:20:52;;;;;;;31.13;18.30;;;;;;;;;;5076488;28;20461;-59
2023/08/10 04:23:20;;;;;;;8.48;5.28;;;;;;;;;;5079071;28;20996;-59
2023/08/10 04:25:47;;;;;;;11.15;4.97;;;;;;;;;;5079052;28;20456;-58
2023/08/10 04:28:14;;;;;;;10.63;4.72;;;;;;;;;;5077916;28;20430;-59
2023/08/10 04:30:41;;;;;;;7.00;4.23;;;;;;;;;;5078503;28;20423;-60
2023/08/10 04:33:09;;;;;;;8.23;4.53;;;;;;;;;;5075483;28;20453;-59
2023/08/10 04:35:37;;;;;;;7.45;4.40;;;;;;;;;;5082492;28;20503;-59
2023/08/10 04:38:04;;;;;;;7.95;4.50;;;;;;;;;;5074819;28;20427;-59
2023/08/10 04:40:31;;;;;;;8.70;3.97;;;;;;;;;;5079460;28;20440;-59
2023/08/10 04:42:59;;;;;;;8.98;4.53;;;;;;;;;;5073387;28;20814;-59
2023/08/10 04:45:26;;;;;;;7.32;4.30;;;;;;;;;;5082956;28;20468;-58
2023/08/10 04:47:53;;;;;;;11.43;4.50;;;;;;;;;;5089150;28;20413;-59
2023/08/10 04:50:20;;;;;;;9.57;4.68;;;;;;;;;;5081287;28;20423;-58
2023/08/10 04:52:49;;;;;;;9.27;4.80;;;;;;;;;;5077177;28;20469;-59
2023/08/10 04:55:16;;;;;;;9.90;4.75;;;;;;;;;;5081675;28;20551;-58
2023/08/10 04:57:43;;;;;;;8.77;4.55;;;;;;;;;;5079098;28;20419;-59
2023/08/10 05:00:13;;;;;;;8.02;4.72;;;;;;;;;;5081375;28;20413;-59
2023/08/10 05:02:40;;;;;;;10.07;4.85;;;;;;;;;;5081969;28;20539;-59
2023/08/10 05:05:07;;;;;;;11.18;4.75;;;;;;;;;;5081402;28;20421;-65
2023/08/10 05:07:35;;;;;;;8.90;5.05;;;;;;;;;;5078196;28;20490;-63
2023/08/10 05:10:05;;;;;;;6.68;4.88;;;;;;;;;;5078213;28;21085;-62
2023/08/10 05:12:32;;;;;;;8.73;4.78;;;;;;;;;;5073740;28;20452;-62
2023/08/10 05:14:59;;;;;;;10.45;5.28;;;;;;;;;;5081066;28;20419;-60
2023/08/10 05:17:26;;;;;;;9.32;4.88;;;;;;;;;;5080426;28;20759;-61
2023/08/10 05:19:53;;;;;;;10.05;4.88;;;;;;;;;;5080478;28;20920;-62
2023/08/10 05:22:21;;;;;;;8.52;5.00;;;;;;;;;;5080205;28;20418;-59
2023/08/10 05:24:48;;;;;;;7.00;4.68;;;;;;;;;;5079616;28;20443;-60
2023/08/10 05:27:16;;;;;;;7.32;4.60;;;;;;;;;;5079686;28;20423;-58
2023/08/10 05:29:43;;;;;;;11.50;5.50;;;;;;;;;;5079648;28;20435;-60
2023/08/10 05:32:10;;;;;;;10.52;4.97;;;;;;;;;;5081505;28;20773;-61
2023/08/10 05:34:37;;;;;;;13.00;5.07;;;;;;;;;;5079800;28;20464;-62
2023/08/10 05:37:04;;;;;;;8.77;4.82;;;;;;;;;;5084320;28;20413;-62
2023/08/10 05:39:31;;;;;;;10.65;4.95;;;;;;;;;;5088885;28;20409;-60
2023/08/10 05:41:58;;;;;;;12.88;4.80;;;;;;;;;;5083780;28;20479;-59
2023/08/10 05:44:27;;;;;;;8.63;4.50;;;;;;;;;;5079162;28;20407;-60
2023/08/10 05:46:54;;;;;;;9.37;4.77;;;;;;;;;;5084636;28;20438;-60
2023/08/10 05:49:21;;;;;;;8.82;4.30;;;;;;;;;;5083442;28;20877;-61
2023/08/10 05:51:48;;;;;;;13.90;5.38;;;;;;;;;;5084609;28;20819;-59
2023/08/10 05:54:15;;;;;;;9.57;4.83;;;;;;;;;;5079703;28;20425;-60
2023/08/10 05:56:42;;;;;;;8.75;4.78;;;;;;;;;;5080333;28;20417;-59
2023/08/10 05:59:09;;;;;;;10.45;5.03;;;;;;;;;;5080129;28;20425;-59
2023/08/10 06:01:40;;;;;;;13.07;4.97;;;;;;;;;;5077722;28;20427;-60
2023/08/10 06:04:07;;;;;;;12.15;4.97;;;;;;;;;;5090158;28;20458;-60
2023/08/10 06:06:34;;;;;;;10.07;4.35;;;;;;;;;;5088089;28;20488;-61
2023/08/10 06:09:01;;;;;;;10.40;5.05;;;;;;;;;;5093121;28;20410;-62
2023/08/10 06:11:28;;;;;;;11.15;4.53;;;;;;;;;;5080706;28;20476;-62
2023/08/10 06:13:55;;;;;;;10.73;4.38;;;;;;;;;;5078813;28;20419;-62
2023/08/10 06:16:22;;;;;;;9.55;4.38;;;;;;;;;;5079630;28;20767;-61
2023/08/10 06:18:51;;;;;;;11.00;4.80;;;;;;;;;;5079429;28;20424;-60
2023/08/10 06:21:19;;;;;;;8.55;4.72;;;;;;;;;;5078741;28;20426;-60
2023/08/10 06:23:46;;;;;;;11.63;3.70;;;;;;;;;;5079041;28;20928;-60
2023/08/10 06:26:14;;;;;;;8.43;3.63;;;;;;;;;;5079713;28;20425;-62
2023/08/10 06:28:41;;;;;;;7.90;3.53;;;;;;;;;;5081362;28;20466;-61
2023/08/10 06:31:09;;;;;;;7.83;3.40;;;;;;;;;;5082547;28;20504;-61
2023/08/10 06:33:36;;;;;;;10.63;4.30;;;;;;;;;;5078257;28;20986;-60
2023/08/10 06:36:06;;;;;;;9.45;3.83;;;;;;;;;;5076619;28;20418;-61
2023/08/10 06:38:34;;;;;;;8.13;4.00;;;;;;;;;;5081651;28;20422;-61
2023/08/10 06:41:01;;;;;;;8.65;3.97;;;;;;;;;;5072574;28;20519;-61
2023/08/10 06:43:28;;;;;;;10.13;3.92;;;;;;;;;;5076449;28;20467;-61
2023/08/10 06:45:56;;;;;;;9.23;3.33;;;;;;;;;;5070825;28;20423;-59
2023/08/10 06:48:23;;;;;;;9.23;2.90;;;;;;;;;;5085203;28;20406;-61
2023/08/10 06:50:50;;;;;;;10.05;3.42;;;;;;;;;;5079089;28;20427;-61
2023/08/10 06:53:18;;;;;;;7.30;3.00;;;;;;;;;;5075007;28;20470;-61
2023/08/10 06:55:47;;;;;;;11.65;3.28;;;;;;;;;;5078616;28;20428;-62
2023/08/10 06:58:14;;;;;;;6.47;3.00;;;;;;;;;;5081045;28;20503;-61
2023/08/10 07:00:41;;;;;;;9.10;2.97;;;;;;;;;;5077655;28;20412;-61
2023/08/10 07:03:08;;;;;;;7.78;2.58;;;;;;;;;;5077907;28;20422;-60
2023/08/10 07:05:38;;;;;;;7.30;2.70;;;;;;;;;;5077501;28;20416;-61
2023/08/10 07:08:06;;;;;;;10.20;2.83;;;;;;;;;;5082304;28;20489;-60
2023/08/10 07:10:35;;;;;;;8.52;2.95;;;;;;;;;;5084283;28;20422;-60
2023/08/10 07:13:02;;;;;;;8.75;2.90;;;;;;;;;;5080747;28;20481;-61
2023/08/10 07:15:29;;;;;;;7.18;2.90;;;;;;;;;;5074240;28;20489;-58
2023/08/10 07:17:57;;;;;;;6.97;2.85;;;;;;;;;;5079613;28;20414;-59
2023/08/10 07:20:24;;;;;;;8.82;3.03;;;;;;;;;;5077999;28;20410;-60
2023/08/10 07:22:51;;;;;;;7.93;3.30;;;;;;;;;;5079177;28;20469;-61
2023/08/10 07:25:20;;;;;;;13.60;4.60;;;;;;;;;;5078516;28;20418;-61
2023/08/10 07:27:48;;;;;;;10.13;5.82;;;;;;;;;;5080902;28;20462;-60
2023/08/10 07:30:16;;;;;;;13.00;5.88;;;;;;;;;;5084797;28;20426;-61
2023/08/10 07:32:43;;;;;;;22.25;8.30;;;;;;;;;;5075181;28;20423;-60
2023/08/10 07:35:10;;;;;;;16.58;6.47;;;;;;;;;;5076371;28;20414;-62
2023/08/10 07:37:40;;;;;;;12.75;4.75;;;;;;;;;;5081891;28;20427;-62
2023/08/10 07:40:08;;;;;;;11.15;4.15;;;;;;;;;;5080466;28;20424;-61
2023/08/10 07:42:35;;;;;;;11.60;3.15;;;;;;;;;;5078102;28;20498;-62
2023/08/10 07:45:04;;;;;;;8.52;2.70;;;;;;;;;;5075467;28;20495;-62
2023/08/10 07:47:31;;;;;;;6.50;2.47;;;;;;;;;;5076870;28;20461;-62
2023/08/10 07:49:58;;;;;;;5.38;2.20;;;;;;;;;;5083309;28;20511;-62
2023/08/10 07:52:25;;;;;;;5.82;2.00;;;;;;;;;;5081642;28;20412;-60
2023/08/10 07:54:52;;;;;;;4.43;1.63;;;;;;;;;;5078600;28;20419;-61
2023/08/10 07:57:19;;;;;;;5.72;1.55;;;;;;;;;;5079518;28;20443;-61
2023/08/10 07:59:46;;;;;;;4.70;1.70;;;;;;;;;;5077233;28;20408;-61
2023/08/10 08:02:15;;;;;;;6.57;2.17;;;;;;;;;;5079804;28;21120;-61
2023/08/10 08:04:41;;;;;;;5.07;2.10;;;;;;;;;;5076973;28;20427;-61
2023/08/10 08:07:09;;;;;;;4.55;1.85;;;;;;;;;;5076498;28;20401;-61
2023/08/10 08:09:36;;;;;;;5.80;2.20;;;;;;;;;;5085570;28;20913;-61
2023/08/10 08:12:03;;;;;;;6.80;2.10;;;;;;;;;;5080852;28;20406;-61
2023/08/10 08:14:30;;;;;;;6.20;2.10;;;;;;;;;;5082195;28;20431;-61
2023/08/10 08:16:57;;;;;;;5.22;1.90;;;;;;;;;;5083709;28;20862;-60
2023/08/10 08:19:25;;;;;;;4.95;2.13;;;;;;;;;;5077811;28;20509;-61
2023/08/10 08:21:52;;;;;;;6.00;1.98;;;;;;;;;;5080266;28;20965;-61
2023/08/10 08:24:19;;;;;;;6.13;1.90;;;;;;;;;;5084198;28;20406;-60
2023/08/10 08:26:46;;;;;;;6.65;2.17;;;;;;;;;;5081638;28;20796;-61
2023/08/10 08:29:13;;;;;;;6.30;2.38;;;;;;;;;;5084100;28;20417;-62
2023/08/10 08:31:40;;;;;;;7.32;1.92;;;;;;;;;;5081910;28;20432;-62
2023/08/10 08:34:07;;;;;;;5.10;1.90;;;;;;;;;;5085121;28;20426;-63
2023/08/10 08:36:35;;;;;;;6.97;1.90;;;;;;;;;;5080468;28;20408;-64
2023/08/10 08:39:02;;;;;;;7.55;2.40;;;;;;;;;;5086893;28;20426;-62
2023/08/10 08:41:33;;;;;;;5.25;2.28;;;;;;;;;;5082435;28;20795;-59
2023/08/10 08:44:01;;;;;;;6.35;2.08;;;;;;;;;;5082852;28;20411;-61
2023/08/10 08:46:30;;;;;;;6.93;1.90;;;;;;;;;;5081663;28;20414;-59
2023/08/10 08:48:57;;;;;;;6.97;2.05;;;;;;;;;;5086108;28;20969;-58
2023/08/10 08:51:24;;;;;;;6.22;2.13;;;;;;;;;;5084643;28;20494;-59
2023/08/10 08:53:53;;;;;;;6.90;2.20;;;;;;;;;;5077245;28;20527;-58
2023/08/10 08:56:21;;;;;;;5.50;2.10;;;;;;;;;;5082736;28;20493;-60
2023/08/10 08:58:49;;;;;;;3.80;2.17;;;;;;;;;;5083128;28;20477;-57
2023/08/10 09:01:16;;;;;;;7.28;2.13;;;;;;;;;;5085087;28;20448;-59
2023/08/10 09:03:43;;;;;;;5.43;2.08;;;;;;;;;;5080628;28;20893;-60
2023/08/10 09:06:10;;;;;;;4.10;2.08;;;;;;;;;;5080578;28;20473;-62
2023/08/10 09:08:38;;;;;;;4.72;2.28;;;;;;;;;;5084480;28;20812;-64
2023/08/10 09:11:07;;;;;;;4.43;1.97;;;;;;;;;;5084321;28;20497;-62
2023/08/10 09:13:34;;;;;;;5.25;2.00;;;;;;;;;;5080749;28;20490;-63
2023/08/10 09:16:05;;;;;;;6.65;1.88;;;;;;;;;;5073051;28;20415;-63
2023/08/10 09:18:33;;;;;;;5.43;2.10;;;;;;;;;;5080764;28;20457;-63
2023/08/10 09:21:07;;;;;;;7.07;2.20;;;;;;;;;;5073736;28;20487;-63
2023/08/10 09:23:36;;;;;;;7.45;2.00;;;;;;;;;;5079868;28;20473;-63
2023/08/10 09:26:07;;;;;;;5.80;2.10;;;;;;;;;;5080764;28;20489;-60
2023/08/10 09:28:37;;;;;;;7.50;2.40;;;;;;;;;;5079086;28;21106;-60
2023/08/10 09:31:04;;;;;;;5.43;2.00;;;;;;;;;;5086246;28;20505;-60
2023/08/10 09:33:33;;;;;;;7.10;2.30;;;;;;;;;;5083136;28;20888;-59
2023/08/10 09:36:00;;;;;;;3.58;1.70;;;;;;;;;;5074746;28;20450;-60
2023/08/10 09:38:27;;;;;;;6.47;1.90;;;;;;;;;;5083890;28;20416;-60
2023/08/10 09:41:07;;;;;;;5.65;1.65;;;;;;;;;;5087511;28;20885;-59
2023/08/10 09:43:34;;;;;;;3.65;1.80;;;;;;;;;;5081846;28;20408;-60
2023/08/10 09:46:06;;;;;;;3.87;1.70;;;;;;;;;;5082853;28;20411;-59
2023/08/10 09:48:37;;;;;;;3.63;1.40;;;;;;;;;;5083638;28;21072;-60
2023/08/10 09:51:04;;;;;;;5.70;2.00;;;;;;;;;;5086264;28;20427;-59
2023/08/10 09:53:32;;;;;;;3.88;1.90;;;;;;;;;;5079889;28;21084;-60
2023/08/10 09:55:59;;;;;;;6.93;1.90;;;;;;;;;;5077506;28;20409;-62
2023/08/10 09:58:26;;;;;;;3.70;1.80;;;;;;;;;;5080074;28;20411;-62
2023/08/10 10:00:53;;;;;;;6.00;2.33;;;;;;;;;;5076893;28;20408;-62
2023/08/10 10:03:22;;;;;;;6.75;2.20;;;;;;;;;;5080818;28;20498;-62
2023/08/10 10:05:50;;;;;;;5.35;2.22;;;;;;;;;;5084172;28;20919;-61
2023/08/10 10:08:18;;;;;;;6.80;2.60;;;;;;;;;;5086845;28;20455;-62
2023/08/10 10:10:45;;;;;;;5.30;2.40;;;;;;;;;;5082651;28;20481;-63
2023/08/10 10:13:13;;;;;;;5.72;2.40;;;;;;;;;;5080500;28;20435;-58
2023/08/10 10:15:41;;;;;;;5.07;2.20;;;;;;;;;;5078989;28;20411;-58
2023/08/10 10:18:09;;;;;;;10.05;2.60;;;;;;;;;;5081174;28;20424;-58
2023/08/10 10:20:39;;;;;;;7.38;2.15;;;;;;;;;;5080073;28;20408;-58
2023/08/10 10:23:12;;;;;;;4.53;2.33;;;;;;;;;;5076784;28;20967;-58
2023/08/10 10:25:39;;;;;;;4.95;2.22;;;;;;;;;;5078830;28;20886;-60
2023/08/10 10:28:13;;;;;;;5.47;2.40;;;;;;;;;;5078667;28;20407;-60
2023/08/10 10:30:54;;;;;;;4.43;2.50;;;;;;;;;;5082204;28;20427;-59
2023/08/10 10:33:22;;;;;;;4.78;2.08;;;;;;;;;;5079218;28;20483;-59
2023/08/10 10:36:03;;;;;;;5.00;2.00;;;;;;;;;;5078412;28;20511;-60
2023/08/10 10:38:32;;;;;;;5.13;2.20;;;;;;;;;;5077996;28;20467;-58
2023/08/10 10:41:08;;;;;;;6.38;2.20;;;;;;;;;;5080818;28;20409;-58
2023/08/10 10:43:35;;;;;;;4.38;2.00;;;;;;;;;;5073894;28;20410;-59
2023/08/10 10:46:02;;;;;;;3.95;2.20;;;;;;;;;;5076989;28;20421;-57
2023/08/10 10:48:34;;;;;;;4.95;2.10;;;;;;;;;;5086367;28;20417;-60
2023/08/10 10:51:03;;;;;;;6.82;2.08;;;;;;;;;;5078164;28;20434;-61
2023/08/10 10:53:30;;;;;;;5.03;2.10;;;;;;;;;;5079191;28;20416;-61
2023/08/10 10:55:58;;;;;;;3.53;2.27;;;;;;;;;;5077531;28;20422;-60
2023/08/10 10:58:28;;;;;;;5.93;2.10;;;;;;;;;;5069177;28;20792;-61
2023/08/10 11:00:55;;;;;;;5.35;2.08;;;;;;;;;;5078088;28;20433;-60
2023/08/10 11:03:23;;;;;;;5.03;2.08;;;;;;;;;;5081043;28;20781;-59
2023/08/10 11:05:50;;;;;;;2.85;1.65;;;;;;;;;;5077280;28;20451;-61
2023/08/10 11:08:17;;;;;;;5.20;2.10;;;;;;;;;;5082014;28;20927;-61
2023/08/10 11:10:44;;;;;;;4.30;1.80;;;;;;;;;;5080870;28;20406;-61
2023/08/10 11:13:12;;;;;;;3.67;1.67;;;;;;;;;;5086274;28;20438;-61
2023/08/10 11:15:39;;;;;;;4.72;2.05;;;;;;;;;;5074845;28;20403;-62
2023/08/10 11:18:10;;;;;;;2.70;1.85;;;;;;;;;;5079691;28;20421;-61
2023/08/10 11:20:43;;;;;;;4.18;1.92;;;;;;;;;;5074312;28;20826;-62
2023/08/10 11:23:10;;;;;;;3.40;2.03;;;;;;;;;;5079657;28;20853;-60
2023/08/10 11:25:37;;;;;;;3.30;2.10;;;;;;;;;;5080382;28;20455;-60
2023/08/10 11:28:04;;;;;;;4.20;1.90;;;;;;;;;;5079524;28;20409;-60
2023/08/10 11:30:32;;;;;;;4.93;2.00;;;;;;;;;;5078586;28;20417;-60
2023/08/10 11:32:59;;;;;;;5.45;2.00;;;;;;;;;;5084411;28;20961;-60
2023/08/10 11:35:26;;;;;;;5.57;2.20;;;;;;;;;;5075257;28;20415;-60
2023/08/10 11:37:54;;;;;;;4.53;2.10;;;;;;;;;;5079828;28;20457;-61
2023/08/10 11:40:22;;;;;;;4.20;2.30;;;;;;;;;;5082022;28;20822;-61
2023/08/10 11:42:52;;;;;;;3.67;2.13;;;;;;;;;;5077903;28;20407;-61
2023/08/10 11:45:20;;;;;;;4.67;1.80;;;;;;;;;;5078124;28;20966;-61
2023/08/10 11:47:55;;;;;;;3.90;1.65;;;;;;;;;;5081610;28;20482;-61
2023/08/10 11:50:23;;;;;;;6.55;1.80;;;;;;;;;;5086598;28;20417;-61
2023/08/10 11:52:50;;;;;;;2.97;1.80;;;;;;;;;;5082615;28;20933;-61
2023/08/10 11:55:18;;;;;;;3.75;1.60;;;;;;;;;;5080596;28;20414;-61
2023/08/10 11:57:48;;;;;;;4.72;1.90;;;;;;;;;;5074040;28;20470;-61
2023/08/10 12:00:22;;;;;;;4.43;1.48;;;;;;;;;;5075336;28;20767;-61
2023/08/10 12:03:06;;;;;;;3.90;1.85;;;;;;;;;;5075862;28;20966;-61
2023/08/10 12:05:45;;;;;;;4.03;1.97;;;;;;;;;;5073577;28;20886;-61
2023/08/10 12:08:13;;;;;;;2.67;1.52;;;;;;;;;;5084051;28;20410;-62
2023/08/10 12:10:41;;;;;;;3.80;1.70;;;;;;;;;;5088150;28;20411;-62
2023/08/10 12:13:10;;;;;;;2.95;1.50;;;;;;;;;;5079253;28;20485;-61
2023/08/10 12:15:37;;;;;;;2.83;1.45;;;;;;;;;;5082646;28;20421;-60
2023/08/10 12:18:06;;;;;;;2.80;1.50;;;;;;;;;;5080790;28;20423;-61
2023/08/10 12:20:34;;;;;;;4.75;1.90;;;;;;;;;;5081774;28;20496;-59
2023/08/10 12:23:01;;;;;;;2.67;1.60;;;;;;;;;;5080979;28;20442;-64
2023/08/10 12:25:30;;;;;;;4.35;1.92;;;;;;;;;;5083169;28;21305;-64
2023/08/10 12:27:57;;;;;;;3.22;1.50;;;;;;;;;;5080434;28;20458;-65
2023/08/10 12:30:24;;;;;;;3.20;1.50;;;;;;;;;;5089235;28;20410;-64
2023/08/10 12:32:51;;;;;;;3.25;1.73;;;;;;;;;;5083347;28;21340;-64
2023/08/10 12:35:20;;;;;;;4.00;1.80;;;;;;;;;;5082473;28;20402;-64
2023/08/10 12:37:48;;;;;;;3.40;1.40;;;;;;;;;;5084374;28;21048;-64
2023/08/10 12:40:16;;;;;;;3.20;1.40;;;;;;;;;;5088473;28;20414;-64
2023/08/10 12:42:43;;;;;;;3.20;1.65;;;;;;;;;;5080543;28;20406;-65
2023/08/10 12:45:12;;;;;;;4.15;2.40;;;;;;;;;;5083102;28;20418;-65
2023/08/10 12:47:39;;;;;;;2.77;1.63;;;;;;;;;;5083220;28;20887;-64
2023/08/10 12:50:06;;;;;;;2.72;1.58;;;;;;;;;;5086710;28;20493;-64
2023/08/10 12:52:35;;;;;;;2.85;1.75;;;;;;;;;;5078228;28;20900;-65
2023/08/10 12:55:02;;;;;;;2.90;1.83;;;;;;;;;;5082886;28;20407;-63
2023/08/10 12:57:29;;;;;;;5.20;2.63;;;;;;;;;;5076628;28;20423;-63
2023/08/10 12:59:57;;;;;;;2.45;1.98;;;;;;;;;;5077649;28;20502;-63
2023/08/10 13:02:25;;;;;;;2.92;2.15;;;;;;;;;;5081466;28;20938;-62
2023/08/10 13:04:52;;;;;;;5.47;2.72;;;;;;;;;;5080423;28;20403;-62
2023/08/10 13:07:19;;;;;;;5.38;2.78;;;;;;;;;;5084666;28;20406;-64
2023/08/10 13:09:47;;;;;;;3.67;2.47;;;;;;;;;;5083239;28;20437;-62
2023/08/10 13:12:14;;;;;;;4.15;2.80;;;;;;;;;;5087268;28;20428;-63
2023/08/10 13:14:41;;;;;;;4.05;2.47;;;;;;;;;;5081346;28;20453;-64
2023/08/10 13:17:08;;;;;;;4.55;2.53;;;;;;;;;;5083622;28;20515;-64
2023/08/10 13:19:36;;;;;;;4.75;3.03;;;;;;;;;;5075248;28;20418;-62
2023/08/10 13:22:06;;;;;;;4.68;2.70;;;;;;;;;;5080395;28;20410;-62
2023/08/10 13:24:33;;;;;;;3.88;2.83;;;;;;;;;;5077834;28;20477;-63
2023/08/10 13:27:01;;;;;;;3.25;2.72;;;;;;;;;;5084931;28;20992;-62
2023/08/10 13:29:29;;;;;;;4.40;2.70;;;;;;;;;;5090502;28;20414;-63
2023/08/10 13:31:56;;;;;;;4.97;3.10;;;;;;;;;;5079084;28;20519;-63
2023/08/10 13:34:23;;;;;;;7.32;3.90;;;;;;;;;;5083672;28;20413;-63
2023/08/10 13:36:51;;;;;;;5.70;3.22;;;;;;;;;;5080191;28;20823;-65
2023/08/10 13:39:18;;;;;;;4.32;3.22;;;;;;;;;;5082922;28;20411;-64
2023/08/10 13:41:45;;;;;;;5.03;3.43;;;;;;;;;;5084280;28;20412;-63
2023/08/10 13:44:14;;;;;;;4.78;3.38;;;;;;;;;;5082508;28;20417;-63
2023/08/10 13:46:42;;;;;;;5.22;4.10;;;;;;;;;;5076728;28;20410;-66
2023/08/10 13:49:09;;;;;;;5.72;4.20;;;;;;;;;;5078679;28;20406;-62
2023/08/10 13:51:37;;;;;;;4.65;4.00;;;;;;;;;;5082598;28;20406;-63
2023/08/10 13:54:04;;;;;;;6.32;4.10;;;;;;;;;;5084208;28;20421;-64
2023/08/10 13:56:51;;;;;;;5.53;4.50;;;;;;;;;;5078037;28;20482;-65
2023/08/10 13:59:19;;;;;;;5.97;4.25;;;;;;;;;;5081765;28;20467;-65
2023/08/10 14:01:46;;;;;;;6.50;4.63;;;;;;;;;;5086605;28;20412;-64
2023/08/10 14:04:13;;;;;;;4.57;4.15;;;;;;;;;;5080309;28;20430;-64
2023/08/10 14:06:40;;;;;;;5.38;4.75;;;;;;;;;;5088833;28;20410;-65
2023/08/10 14:09:08;;;;;;;5.87;5.27;;;;;;;;;;5084917;28;20407;-64
2023/08/10 14:11:35;;;;;;;6.63;5.05;;;;;;;;;;5081754;28;20401;-65
2023/08/10 14:14:02;;;;;;;6.90;5.23;;;;;;;;;;5081746;28;20754;-65
2023/08/10 14:16:30;;;;;;;6.82;4.97;;;;;;;;;;5085477;28;20473;-64
2023/08/10 14:18:58;;;;;;;6.20;5.10;;;;;;;;;;5078827;28;20412;-63
2023/08/10 14:21:25;;;;;;;6.47;4.88;;;;;;;;;;5083391;28;20894;-65
2023/08/10 14:23:52;;;;;;;7.00;4.68;;;;;;;;;;5085150;28;20421;-61
2023/08/10 14:26:19;;;;;;;4.75;4.25;;;;;;;;;;5086215;28;21119;-64
2023/08/10 14:28:46;;;;;;;6.68;4.47;;;;;;;;;;5083250;28;20410;-65
2023/08/10 14:31:13;;;;;;;5.35;4.18;;;;;;;;;;5083583;28;20414;-64
2023/08/10 14:33:41;;;;;;;4.78;4.20;;;;;;;;;;5082629;28;20425;-66
2023/08/10 14:36:10;;;;;;;6.65;4.30;;;;;;;;;;5082363;28;20414;-66
2023/08/10 14:38:37;;;;;;;4.63;4.18;;;;;;;;;;5078138;28;20475;-66
2023/08/10 14:41:04;;;;;;;4.40;3.70;;;;;;;;;;5081173;28;20419;-66
2023/08/10 14:43:31;;;;;;;5.45;4.15;;;;;;;;;;5072262;28;20885;-66
2023/08/10 14:45:58;;;;;;;4.53;3.60;;;;;;;;;;5078673;28;20411;-68